Time;durP1;ratioP1;P1;durP2;ratioP2;P2;SDS_P1;SDS_P2;PMS_P1;PMS_P2;Temp;Humidity;BMP_temperature;BMP_pressure;BME280_temperature;BME280_humidity;BME280_pressure;Samples;Min_cycle;Max_cycle;Signal;HPM_P1;HPM_P2
2022/03/26 00:01:57;;;;;;;;;18.00;16.20;;;;;6.27;50.89;101341.16;5116343;28;8817;-62
2022/03/26 00:04:25;;;;;;;;;16.80;14.00;;;;;6.26;50.95;101344.72;5116626;28;8968;-63
2022/03/26 00:06:52;;;;;;;;;23.60;21.20;;;;;6.27;50.82;101338.50;5116410;28;8853;-63
2022/03/26 00:09:20;;;;;;;;;14.20;12.80;;;;;6.27;50.77;101338.50;5112652;28;8811;-63
2022/03/26 00:11:48;;;;;;;;;20.80;18.60;;;;;6.27;50.92;101346.44;5095891;28;9092;-64
2022/03/26 00:14:16;;;;;;;;;18.40;16.40;;;;;6.28;51.26;101334.94;5095182;28;8846;-63
2022/03/26 00:16:43;;;;;;;;;25.80;22.80;;;;;6.29;50.98;101328.75;5095969;28;8824;-62
2022/03/26 00:19:12;;;;;;;;;20.80;20.00;;;;;6.33;51.36;101335.63;5097128;28;8974;-63
2022/03/26 00:21:39;;;;;;;;;24.20;21.00;;;;;6.36;50.88;101335.50;5094949;28;8875;-63
2022/03/26 00:24:07;;;;;;;;;21.80;18.20;;;;;6.39;51.29;101335.38;5096008;28;8878;-64
2022/03/26 00:26:35;;;;;;;;;28.80;25.80;;;;;6.39;50.89;101332.72;5095776;28;8839;-63
2022/03/26 00:29:02;;;;;;;;;29.80;26.40;;;;;6.39;50.91;101330.09;5095656;28;8949;-64
2022/03/26 00:31:33;;;;;;;;;24.20;21.80;;;;;6.37;50.86;101331.94;5115533;28;8818;-64
2022/03/26 00:34:01;;;;;;;;;21.80;18.00;;;;;6.34;50.63;101322.34;5115926;28;8857;-64
2022/03/26 00:36:28;;;;;;;;;21.60;17.60;;;;;6.25;51.11;101324.47;5116162;28;8854;-64
2022/03/26 00:38:56;;;;;;;;;19.60;17.60;;;;;6.10;51.52;101320.69;5115823;28;8922;-63
2022/03/26 00:41:24;;;;;;;;;22.40;21.20;;;;;5.95;51.20;101321.28;5095699;28;8865;-63
2022/03/26 00:43:52;;;;;;;;;16.60;14.40;;;;;5.82;51.80;101329.72;5094740;28;8981;-63
2022/03/26 00:46:20;;;;;;;;;18.20;14.40;;;;;5.74;51.97;101329.09;5095407;28;9516;-64
2022/03/26 00:48:48;;;;;;;;;19.00;17.20;;;;;5.65;52.05;101334.75;5095658;28;8819;-63
2022/03/26 00:51:16;;;;;;;;;23.20;20.40;;;;;5.60;52.60;101334.91;5113608;28;8821;-61
2022/03/26 00:53:43;;;;;;;;;14.40;10.80;;;;;5.56;52.82;101333.28;5115618;28;8871;-61
2022/03/26 00:56:11;;;;;;;;;13.80;13.00;;;;;5.53;52.38;101324.66;5115815;28;8964;-62
2022/03/26 00:58:39;;;;;;;;;11.00;9.60;;;;;5.53;52.40;101329.94;5115833;28;8944;-62
2022/03/26 01:01:08;;;;;;;;;30.40;25.00;;;;;5.55;52.18;101333.38;5097641;28;8828;-63
2022/03/26 01:03:36;;;;;;;;;25.40;23.20;;;;;5.56;52.52;101321.88;5094572;28;8831;-62
2022/03/26 01:06:04;;;;;;;;;23.80;19.80;;;;;5.56;52.14;101325.38;5094476;28;8842;-62
2022/03/26 01:08:31;;;;;;;;;13.60;12.60;;;;;5.55;52.14;101320.16;5094555;28;8823;-62
2022/03/26 01:10:59;;;;;;;;;20.20;20.20;;;;;5.54;52.64;101319.28;5109204;28;8906;-62
2022/03/26 01:13:28;;;;;;;;;22.00;18.00;;;;;5.56;52.22;101324.53;5115324;28;8856;-63
2022/03/26 01:15:56;;;;;;;;;22.60;18.40;;;;;5.55;52.66;101322.81;5115116;28;9617;-62
2022/03/26 01:18:24;;;;;;;;;21.80;20.80;;;;;5.51;52.31;101329.09;5115398;28;8810;-62
2022/03/26 01:20:52;;;;;;;;;20.60;16.40;;;;;5.43;52.97;101326.75;5100271;28;8907;-62
2022/03/26 01:23:20;;;;;;;;;16.80;14.80;;;;;5.34;53.08;101332.38;5094330;28;8828;-62
2022/03/26 01:25:47;;;;;;;;;21.40;19.00;;;;;5.23;53.27;101333.69;5094675;28;8870;-62
2022/03/26 01:28:15;;;;;;;;;19.60;17.60;;;;;5.14;53.29;101334.00;5098959;28;8832;-62
2022/03/26 01:30:43;;;;;;;;;18.40;17.60;;;;;5.06;53.53;101333.41;5112100;28;8825;-62
2022/03/26 01:33:11;;;;;;;;;18.60;17.60;;;;;5.00;53.87;101330.97;5119316;28;8907;-62
2022/03/26 01:35:39;;;;;;;;;22.80;19.40;;;;;4.95;53.94;101339.03;5119787;28;8918;-62
2022/03/26 01:38:07;;;;;;;;;21.00;19.00;;;;;4.92;53.78;101344.44;5119487;28;8840;-62
2022/03/26 01:40:34;;;;;;;;;20.60;18.40;;;;;4.90;53.44;101345.41;5106972;28;8807;-63
2022/03/26 01:43:02;;;;;;;;;23.60;15.20;;;;;4.89;53.92;101346.31;5099261;28;8953;-62
2022/03/26 01:45:30;;;;;;;;;15.20;13.80;;;;;4.88;53.24;101347.25;5098870;28;8832;-62
2022/03/26 01:47:58;;;;;;;;;17.00;16.00;;;;;4.90;53.69;101351.56;5099151;28;8836;-62
2022/03/26 01:50:26;;;;;;;;;18.80;15.20;;;;;4.90;53.32;101346.28;5108499;28;8852;-62
2022/03/26 01:52:54;;;;;;;;;18.80;16.40;;;;;4.89;52.86;101348.97;5119296;28;8837;-62
2022/03/26 01:55:21;;;;;;;;;25.40;19.80;;;;;4.87;53.43;101342.88;5119347;28;8845;-62
2022/03/26 01:57:49;;;;;;;;;14.00;13.00;;;;;4.85;53.49;101345.56;5118827;28;8940;-62
2022/03/26 02:00:16;;;;;;;;;28.00;23.80;;;;;4.83;53.42;101344.75;5109670;28;8827;-62
2022/03/26 02:02:44;;;;;;;;;17.20;14.20;;;;;4.80;53.24;101344.00;5098267;28;8851;-62
2022/03/26 02:05:12;;;;;;;;;22.40;19.00;;;;;4.76;53.29;101340.59;5098952;28;9775;-62
2022/03/26 02:07:40;;;;;;;;;20.20;19.80;;;;;4.73;53.87;101335.41;5099681;28;8820;-63
2022/03/26 02:10:08;;;;;;;;;22.40;19.40;;;;;4.70;53.88;101340.81;5098334;28;8841;-63
2022/03/26 02:12:36;;;;;;;;;13.80;12.20;;;;;4.69;53.89;101335.56;5098392;28;8827;-62
2022/03/26 02:15:03;;;;;;;;;13.20;10.20;;;;;4.68;53.73;101333.84;5098675;28;8862;-62
2022/03/26 02:17:31;;;;;;;;;14.60;13.80;;;;;4.67;53.86;101332.13;5112182;28;8894;-62
2022/03/26 02:19:59;;;;;;;;;22.60;19.20;;;;;4.67;53.31;101332.13;5118895;28;8826;-62
2022/03/26 02:22:27;;;;;;;;;19.80;14.80;;;;;4.68;54.06;101334.72;5119011;28;8969;-64
2022/03/26 02:24:54;;;;;;;;;17.20;15.40;;;;;4.70;54.14;101332.00;5117654;28;8888;-62
2022/03/26 02:27:22;;;;;;;;;14.80;13.00;;;;;4.71;54.24;101326.69;5103878;28;9489;-62
2022/03/26 02:29:50;;;;;;;;;22.00;20.00;;;;;4.69;53.81;101330.28;5096331;28;8824;-62
2022/03/26 02:32:18;;;;;;;;;17.80;17.60;;;;;4.67;54.52;101327.72;5096430;28;8900;-63
2022/03/26 02:34:47;;;;;;;;;22.60;20.40;;;;;4.66;53.85;101330.41;5095773;28;8928;-63
2022/03/26 02:37:27;;;;;;;;;19.60;16.40;;;;;4.67;53.67;101330.38;5077335;28;8920;-62
2022/03/26 02:39:55;;;;;;;;;17.80;15.20;;;;;4.67;53.96;101335.63;5077897;28;8919;-62
2022/03/26 02:42:23;;;;;;;;;23.00;19.40;;;;;4.65;53.92;101324.25;5077586;28;8818;-62
2022/03/26 02:44:51;;;;;;;;;19.00;16.80;;;;;4.62;53.85;101327.00;5077337;28;8972;-62
2022/03/26 02:47:19;;;;;;;;;13.80;13.80;;;;;4.61;53.67;101338.47;5117420;28;8944;-63
2022/03/26 02:49:47;;;;;;;;;13.40;13.00;;;;;4.59;53.89;101334.16;5118111;28;8849;-63
2022/03/26 02:52:15;;;;;;;;;21.00;19.20;;;;;4.56;53.49;101326.38;5118015;28;8963;-63
2022/03/26 02:54:42;;;;;;;;;22.00;20.80;;;;;4.54;53.84;101336.06;5117817;28;8984;-62
2022/03/26 02:57:10;;;;;;;;;19.20;16.00;;;;;4.51;54.13;101331.78;5113633;28;8962;-63
2022/03/26 02:59:38;;;;;;;;;15.40;14.80;;;;;4.46;53.80;101335.47;5096623;28;8965;-62
2022/03/26 03:02:09;;;;;;;;;24.20;21.60;;;;;4.41;54.53;101332.97;5097819;28;8857;-66
2022/03/26 03:04:38;;;;;;;;;19.60;17.40;;;;;4.39;53.97;101331.31;5097624;28;8820;-63
2022/03/26 03:07:06;;;;;;;;;23.20;21.80;;;;;4.37;54.10;101327.84;5097711;28;8839;-63
2022/03/26 03:09:34;;;;;;;;;16.40;15.00;;;;;4.33;54.65;101329.72;5097039;28;8835;-63
2022/03/26 03:12:01;;;;;;;;;22.60;18.40;;;;;4.27;53.93;101329.91;5105964;28;8825;-62
2022/03/26 03:14:29;;;;;;;;;24.80;23.20;;;;;4.22;54.87;101328.34;5116104;28;8833;-63
2022/03/26 03:16:56;;;;;;;;;20.00;18.00;;;;;4.14;54.97;101331.25;5116046;28;8851;-63
2022/03/26 03:19:25;;;;;;;;;9.80;4.80;;;;;4.07;54.71;101329.72;5116101;28;8922;-62
2022/03/26 03:21:53;;;;;;;;;16.20;15.60;;;;;4.02;54.64;101330.72;5115708;28;8849;-66
2022/03/26 03:24:21;;;;;;;;;19.00;18.20;;;;;3.98;55.01;101329.13;5115345;28;8849;-63
2022/03/26 03:26:49;;;;;;;;;8.60;5.80;;;;;3.94;54.82;101338.00;5113490;28;8829;-62
2022/03/26 03:29:17;;;;;;;;;17.40;14.40;;;;;3.91;54.58;101338.13;5095292;28;8816;-63
2022/03/26 03:31:47;;;;;;;;;20.80;18.80;;;;;3.90;55.34;101333.75;5095013;28;9010;-64
2022/03/26 03:34:15;;;;;;;;;22.00;17.60;;;;;3.87;54.98;101336.47;5095659;28;8831;-64
2022/03/26 03:36:43;;;;;;;;;16.20;14.20;;;;;3.84;55.19;101334.81;5095405;28;8832;-63
2022/03/26 03:39:10;;;;;;;;;16.20;15.40;;;;;3.82;54.76;101333.13;5095285;28;8831;-63
2022/03/26 03:41:38;;;;;;;;;17.20;16.00;;;;;3.81;55.63;101339.31;5094973;28;8848;-63
2022/03/26 03:44:06;;;;;;;;;18.00;16.00;;;;;3.81;54.84;101339.31;5095871;28;8934;-68
2022/03/26 03:46:34;;;;;;;;;19.00;17.00;;;;;3.80;54.99;101340.22;5115855;28;8955;-63
2022/03/26 03:49:02;;;;;;;;;22.00;18.00;;;;;3.79;54.66;101333.22;5116101;28;8821;-62
2022/03/26 03:51:30;;;;;;;;;16.00;13.60;;;;;3.77;54.92;101342.09;5117386;28;8837;-63
2022/03/26 03:53:58;;;;;;;;;23.20;21.20;;;;;3.73;55.41;101339.53;5116394;28;9522;-62
2022/03/26 03:56:25;;;;;;;;;5.80;5.80;;;;;3.70;55.42;101343.19;5117233;28;8829;-62
2022/03/26 03:58:53;;;;;;;;;22.00;19.00;;;;;3.68;55.38;101340.56;5117117;28;9468;-63
2022/03/26 04:01:21;;;;;;;;;17.00;15.60;;;;;3.64;55.54;101333.66;5116719;28;8941;-62
2022/03/26 04:03:50;;;;;;;;;24.60;18.80;;;;;3.61;55.50;101335.50;5113902;28;8837;-63
2022/03/26 04:06:17;;;;;;;;;9.60;7.00;;;;;3.60;55.57;101339.94;5096449;28;8938;-63
2022/03/26 04:08:45;;;;;;;;;18.80;15.40;;;;;3.59;55.18;101332.06;5096480;28;8819;-63
2022/03/26 04:11:14;;;;;;;;;16.80;15.40;;;;;3.58;55.62;101338.25;5096144;28;8816;-63
2022/03/26 04:13:42;;;;;;;;;12.00;9.40;;;;;3.56;55.92;101340.91;5095814;28;8965;-62
2022/03/26 04:16:10;;;;;;;;;16.80;14.40;;;;;3.54;55.72;101342.75;5095650;28;8847;-63
2022/03/26 04:18:37;;;;;;;;;18.60;17.20;;;;;3.51;55.13;101328.81;5094331;28;8840;-62
2022/03/26 04:21:06;;;;;;;;;15.80;13.40;;;;;3.49;56.20;101336.72;5096244;28;8981;-62
2022/03/26 04:23:33;;;;;;;;;16.00;16.00;;;;;3.49;56.08;101334.09;5095623;28;8962;-63
2022/03/26 04:26:01;;;;;;;;;11.00;11.00;;;;;3.49;55.61;101343.78;5102912;28;8849;-62
2022/03/26 04:28:30;;;;;;;;;17.60;15.20;;;;;3.50;56.38;101337.63;5115151;28;9078;-62
2022/03/26 04:30:57;;;;;;;;;10.40;7.00;;;;;3.47;55.78;101341.19;5116581;28;8837;-62
2022/03/26 04:33:27;;;;;;;;;16.40;15.60;;;;;3.45;55.62;101353.53;5115711;28;8856;-63
2022/03/26 04:35:54;;;;;;;;;14.00;14.00;;;;;3.42;55.63;101343.06;5116001;28;8880;-64
2022/03/26 04:38:22;;;;;;;;;16.00;14.80;;;;;3.40;55.84;101355.44;5115340;28;8833;-62
2022/03/26 04:40:50;;;;;;;;;18.20;16.40;;;;;3.37;56.46;101349.38;5115531;28;8830;-62
2022/03/26 04:43:20;;;;;;;;;16.60;12.60;;;;;3.37;55.90;101354.66;5115719;28;8939;-63
2022/03/26 04:45:47;;;;;;;;;15.80;15.40;;;;;3.34;55.62;101350.31;5115828;28;8948;-63
2022/03/26 04:48:15;;;;;;;;;18.80;18.00;;;;;3.33;55.83;101353.88;5116211;28;8962;-64
2022/03/26 04:50:43;;;;;;;;;26.80;22.20;;;;;3.31;55.85;101357.44;5113347;28;8818;-62
2022/03/26 04:53:11;;;;;;;;;15.20;15.20;;;;;3.30;55.89;101361.88;5115522;28;8834;-64
2022/03/26 04:55:39;;;;;;;;;14.00;12.20;;;;;3.28;56.11;101358.41;5115617;28;9027;-63
2022/03/26 04:58:08;;;;;;;;;6.40;4.80;;;;;3.29;56.34;101364.53;5115893;28;8976;-63
2022/03/26 05:00:36;;;;;;;;;15.80;14.20;;;;;3.29;56.12;101362.78;5115389;28;8814;-63
2022/03/26 05:03:04;;;;;;;;;20.80;18.00;;;;;3.26;56.36;101354.94;5115954;28;8833;-63
2022/03/26 05:05:32;;;;;;;;;17.20;14.20;;;;;3.25;55.83;101355.84;5113932;28;8830;-63
2022/03/26 05:07:59;;;;;;;;;14.20;9.00;;;;;3.23;55.86;101357.66;5114882;28;8833;-62
2022/03/26 05:10:28;;;;;;;;;24.20;17.60;;;;;3.22;56.20;101366.47;5115411;28;8849;-64
2022/03/26 05:12:57;;;;;;;;;17.00;15.00;;;;;3.18;56.54;101367.44;5115397;28;8829;-63
2022/03/26 05:15:27;;;;;;;;;15.20;13.80;;;;;3.13;56.00;101368.47;5105255;28;8848;-62
2022/03/26 05:17:55;;;;;;;;;16.60;15.80;;;;;3.07;56.44;101372.16;5095173;28;8981;-63
2022/03/26 05:20:23;;;;;;;;;22.20;20.20;;;;;3.03;56.68;101364.38;5095580;28;9594;-62
2022/03/26 05:22:51;;;;;;;;;19.00;16.80;;;;;3.00;56.70;101373.22;5095117;28;8920;-62
2022/03/26 05:25:19;;;;;;;;;12.40;11.20;;;;;2.98;56.71;101375.03;5095145;28;8862;-63
2022/03/26 05:27:47;;;;;;;;;19.00;16.00;;;;;2.97;56.34;101380.31;5094982;28;8982;-62
2022/03/26 05:30:15;;;;;;;;;15.40;14.60;;;;;2.96;56.47;101383.84;5095314;28;8840;-64
2022/03/26 05:32:43;;;;;;;;;20.00;17.60;;;;;2.94;56.73;101383.88;5095252;28;8954;-63
2022/03/26 05:35:13;;;;;;;;;12.40;9.60;;;;;2.96;56.96;101381.22;5094744;28;8920;-62
2022/03/26 05:37:41;;;;;;;;;15.80;13.40;;;;;2.97;56.78;101386.44;5095092;28;8823;-67
2022/03/26 05:40:09;;;;;;;;;18.60;15.00;;;;;3.00;56.86;101394.25;5094870;28;8839;-62
2022/03/26 05:42:37;;;;;;;;;11.80;8.00;;;;;3.02;56.51;101395.06;5100186;28;8820;-63
2022/03/26 05:45:04;;;;;;;;;11.40;10.40;;;;;3.04;56.39;101388.00;5115035;28;8824;-63
2022/03/26 05:47:32;;;;;;;;;15.00;12.40;;;;;3.07;56.86;101397.56;5115446;28;8838;-63
2022/03/26 05:50:00;;;;;;;;;13.60;12.40;;;;;3.10;56.32;101397.53;5115451;28;8893;-62
2022/03/26 05:52:28;;;;;;;;;12.20;12.20;;;;;3.13;56.40;101392.16;5095077;28;8930;-63
2022/03/26 05:54:56;;;;;;;;;20.60;18.20;;;;;3.17;55.69;101399.94;5094696;28;8988;-64
2022/03/26 05:57:23;;;;;;;;;24.40;21.80;;;;;3.24;55.74;101408.56;5095009;28;8854;-65
2022/03/26 05:59:51;;;;;;;;;14.80;14.20;;;;;3.30;55.51;101411.88;5094525;28;8904;-62
2022/03/26 06:02:21;;;;;;;;;15.60;15.60;;;;;3.35;55.78;101414.38;5094557;28;8974;-63
2022/03/26 06:04:49;;;;;;;;;15.40;14.20;;;;;3.41;55.66;101420.34;5093631;28;8841;-63
2022/03/26 06:07:16;;;;;;;;;11.60;10.40;;;;;3.49;55.98;101412.25;5093802;28;8820;-63
2022/03/26 06:09:44;;;;;;;;;17.20;15.60;;;;;3.58;55.28;101415.50;5093841;28;8839;-62
2022/03/26 06:12:12;;;;;;;;;13.40;12.40;;;;;3.68;55.71;101424.84;5094525;28;8847;-63
2022/03/26 06:14:40;;;;;;;;;24.00;22.60;;;;;3.77;55.18;101429.84;5097873;28;8827;-62
2022/03/26 06:17:08;;;;;;;;;24.60;23.00;;;;;3.94;55.30;101425.84;5097902;28;8831;-63
2022/03/26 06:19:36;;;;;;;;;18.80;18.00;;;;;4.10;54.74;101432.38;5111933;28;8859;-63
2022/03/26 06:22:04;;;;;;;;;18.40;16.20;;;;;4.22;54.50;101429.41;5117757;28;8932;-63
2022/03/26 06:24:32;;;;;;;;;15.20;12.60;;;;;4.30;54.48;101429.16;5118631;28;8972;-62
2022/03/26 06:26:59;;;;;;;;;21.20;16.80;;;;;4.35;54.48;101435.16;5117967;28;8851;-63
2022/03/26 06:29:27;;;;;;;;;16.20;15.40;;;;;4.38;54.85;101430.66;5117720;28;8828;-62
2022/03/26 06:31:55;;;;;;;;;17.60;17.20;;;;;4.44;54.09;101440.13;5116583;28;8975;-62
2022/03/26 06:34:24;;;;;;;;;23.60;18.00;;;;;4.46;54.81;101439.19;5116489;28;8968;-64
2022/03/26 06:36:51;;;;;;;;;15.20;13.80;;;;;4.50;54.10;101434.69;5116560;28;8883;-63
2022/03/26 06:39:19;;;;;;;;;17.00;16.00;;;;;4.54;54.55;101436.28;5115781;28;8953;-63
2022/03/26 06:41:47;;;;;;;;;15.60;15.00;;;;;4.55;54.68;101430.97;5115540;28;8821;-63
2022/03/26 06:44:15;;;;;;;;;15.40;13.80;;;;;4.59;54.62;101427.34;5116215;28;8841;-61
2022/03/26 06:46:43;;;;;;;;;21.00;20.00;;;;;4.67;54.22;101424.47;5115586;28;8829;-62
2022/03/26 06:49:10;;;;;;;;;15.20;12.60;;;;;4.78;54.32;101431.13;5114313;28;8910;-65
2022/03/26 06:51:38;;;;;;;;;18.60;15.60;;;;;4.89;54.29;101434.28;5115910;28;8961;-62
2022/03/26 06:54:06;;;;;;;;;17.20;14.20;;;;;4.98;53.91;101427.81;5115687;28;8956;-62
2022/03/26 06:56:35;;;;;;;;;25.00;23.20;;;;;5.04;54.15;101424.97;5115669;28;8867;-62
2022/03/26 06:59:02;;;;;;;;;23.20;22.00;;;;;5.17;53.49;101429.78;5116304;28;9782;-63
2022/03/26 07:01:30;;;;;;;;;19.00;15.40;;;;;5.32;53.41;101423.13;5115756;28;8825;-63
2022/03/26 07:03:58;;;;;;;;;19.20;17.00;;;;;5.47;53.17;101435.81;5115754;28;8825;-62
2022/03/26 07:06:26;;;;;;;;;19.80;19.20;;;;;5.61;53.31;101429.13;5115937;28;8856;-62
2022/03/26 07:08:54;;;;;;;;;6.20;3.60;;;;;5.78;53.45;101434.66;5116531;28;8845;-62
2022/03/26 07:11:22;;;;;;;;;24.20;18.60;;;;;5.98;52.60;101434.81;5111070;28;8819;-62
2022/03/26 07:13:50;;;;;;;;;12.20;12.20;;;;;6.14;52.66;101432.47;5096711;28;8832;-63
2022/03/26 07:16:17;;;;;;;;;15.80;13.60;;;;;6.25;52.18;101419.69;5096020;28;8856;-62
2022/03/26 07:18:45;;;;;;;;;22.20;20.00;;;;;6.33;52.20;101423.78;5096805;28;8835;-62
2022/03/26 07:21:14;;;;;;;;;28.00;21.20;;;;;6.42;51.95;101417.25;5096883;28;8847;-62
2022/03/26 07:23:42;;;;;;;;;30.80;24.80;;;;;6.52;52.01;101408.91;5095905;28;8823;-62
2022/03/26 07:26:10;;;;;;;;;31.20;29.40;;;;;6.65;52.37;101414.56;5096512;28;8839;-62
2022/03/26 07:28:38;;;;;;;;;24.20;21.80;;;;;6.81;52.25;101411.25;5096866;28;8836;-62
2022/03/26 07:31:06;;;;;;;;;28.20;23.20;;;;;7.01;51.72;101418.34;5093778;28;8993;-63
2022/03/26 07:33:34;;;;;;;;;25.80;22.00;;;;;7.23;51.02;101414.75;5086867;28;8838;-62
2022/03/26 07:36:02;;;;;;;;;29.00;24.20;;;;;7.49;51.25;101418.94;5096601;28;8839;-63
2022/03/26 07:38:30;;;;;;;;;21.80;21.40;;;;;7.73;50.76;101410.75;5091849;28;8828;-63
2022/03/26 07:40:58;;;;;;;;;29.20;25.00;;;;;8.00;50.47;101417.47;5097107;28;8936;-62
2022/03/26 07:43:26;;;;;;;;;30.60;29.20;;;;;8.22;50.27;101404.97;5115345;28;8814;-62
2022/03/26 07:45:54;;;;;;;;;23.00;22.40;;;;;8.44;49.70;101417.16;5116540;28;8822;-62
2022/03/26 07:48:22;;;;;;;;;19.40;19.00;;;;;8.67;49.98;101411.59;5116615;28;8922;-62
2022/03/26 07:50:50;;;;;;;;;25.40;19.60;;;;;8.93;49.43;101408.56;5116697;28;8821;-62
2022/03/26 07:53:22;;;;;;;;;19.80;16.20;;;;;9.19;49.15;101415.22;5116602;28;8833;-62
2022/03/26 07:55:53;;;;;;;;;19.40;15.60;;;;;9.46;48.62;101411.16;5116036;28;8865;-62
2022/03/26 07:58:21;;;;;;;;;17.80;15.80;;;;;9.65;48.38;101417.25;5111778;28;8816;-62
2022/03/26 08:00:50;;;;;;;;;27.80;27.60;;;;;9.86;48.60;101408.97;5096249;28;8827;-62
2022/03/26 08:03:19;;;;;;;;;29.60;25.00;;;;;10.07;47.73;101417.63;5095874;28;9052;-62
2022/03/26 08:05:47;;;;;;;;;24.80;23.00;;;;;10.26;47.56;101411.22;5095970;28;8819;-63
2022/03/26 08:08:14;;;;;;;;;33.60;32.00;;;;;10.43;47.52;101411.19;5095561;28;8904;-63
2022/03/26 08:10:42;;;;;;;;;30.00;27.80;;;;;10.57;47.63;101411.28;5095664;28;8865;-64
2022/03/26 08:13:10;;;;;;;;;27.00;24.00;;;;;10.70;47.84;101422.09;5114446;28;8814;-62
2022/03/26 08:15:38;;;;;;;;;34.20;29.60;;;;;10.79;47.94;101411.78;5115537;28;8864;-62
2022/03/26 08:18:05;;;;;;;;;25.00;23.40;;;;;10.89;47.51;101420.97;5115194;28;8903;-63
2022/03/26 08:20:33;;;;;;;;;30.80;27.40;;;;;10.98;47.97;101423.09;5115655;28;8991;-63
2022/03/26 08:23:01;;;;;;;;;25.20;20.20;;;;;11.03;47.53;101413.03;5115445;28;8947;-63
2022/03/26 08:28:14;;;;;;;;;17.00;15.40;;;;;11.30;47.40;101414.06;5115760;28;8837;-63
2022/03/26 08:30:42;;;;;;;;;34.80;30.20;;;;;11.47;47.22;101405.94;5115517;28;8825;-63
2022/03/26 08:33:10;;;;;;;;;17.80;15.00;;;;;11.63;46.70;101422.78;5115312;28;8825;-62
2022/03/26 08:35:38;;;;;;;;;27.40;23.40;;;;;11.75;46.59;101410.50;5114734;28;9544;-63
2022/03/26 08:38:06;;;;;;;;;13.80;11.60;;;;;11.91;46.57;101411.28;5115089;28;8829;-63
2022/03/26 08:40:34;;;;;;;;;25.60;19.40;;;;;12.07;45.88;101418.25;5114903;28;8848;-63
2022/03/26 08:43:02;;;;;;;;;43.20;34.00;;;;;12.21;46.44;101420.88;5095984;28;9620;-62
2022/03/26 08:45:29;;;;;;;;;35.50;29.00;;;;;12.32;45.89;101418.41;5094698;28;8836;-63
2022/03/26 08:47:57;;;;;;;;;28.80;24.60;;;;;12.51;45.92;101416.28;5094848;28;8823;-62
2022/03/26 08:50:25;;;;;;;;;35.20;30.20;;;;;12.72;45.66;101412.22;5095356;28;8819;-62
2022/03/26 08:52:53;;;;;;;;;32.00;29.00;;;;;12.95;45.47;101419.63;5094383;28;8823;-62
2022/03/26 08:55:21;;;;;;;;;32.40;31.60;;;;;13.20;45.53;101423.25;5093383;28;8990;-62
2022/03/26 08:57:49;;;;;;;;;34.75;30.50;;;;;13.54;44.95;101424.50;5092599;28;8852;-63
2022/03/26 09:00:17;;;;;;;;;24.50;22.75;;;;;13.96;44.75;101432.28;5092688;28;8839;-62
2022/03/26 09:02:45;;;;;;;;;26.25;23.75;;;;;14.43;43.62;101427.13;5092964;28;8850;-62
2022/03/26 09:05:13;;;;;;;;;33.75;26.25;;;;;14.77;43.57;101421.00;5093263;28;8839;-62
2022/03/26 09:07:41;;;;;;;;;31.25;27.25;;;;;15.03;43.18;101425.31;5092699;28;8831;-62
2022/03/26 09:10:09;;;;;;;;;19.50;19.50;;;;;15.22;43.25;101423.84;5093425;28;8839;-62
2022/03/26 09:12:37;;;;;;;;;32.75;29.50;;;;;15.47;42.92;101422.88;5107198;28;8952;-62
2022/03/26 09:15:06;;;;;;;;;34.25;28.50;;;;;15.69;42.70;101420.25;5113979;28;8837;-62
2022/03/26 09:17:34;;;;;;;;;25.50;24.00;;;;;15.89;42.07;101422.22;5113804;28;8968;-68
2022/03/26 09:20:02;;;;;;;;;30.00;27.00;;;;;16.05;41.77;101420.06;5114020;28;8844;-62
2022/03/26 09:22:29;;;;;;;;;32.00;30.25;;;;;16.28;42.18;101428.91;5114373;28;8837;-63
2022/03/26 09:24:57;;;;;;;;;37.75;31.75;;;;;16.48;41.82;101420.09;5115054;28;8834;-62
2022/03/26 09:27:25;;;;;;;;;27.00;23.00;;;;;16.59;41.56;101427.31;5109058;28;8813;-62
2022/03/26 09:29:53;;;;;;;;;33.25;28.25;;;;;16.63;41.98;101424.25;5114470;28;8865;-62
2022/03/26 09:32:22;;;;;;;;;38.25;35.00;;;;;16.67;42.09;101431.09;5114204;28;8868;-62
2022/03/26 09:34:49;;;;;;;;;27.00;23.50;;;;;16.75;42.08;101434.03;5114514;28;8847;-62
2022/03/26 09:37:17;;;;;;;;;25.50;23.50;;;;;16.98;42.02;101429.44;5114149;28;8848;-63
2022/03/26 09:39:45;;;;;;;;;31.50;25.50;;;;;17.27;41.59;101434.13;5113518;28;8848;-62
2022/03/26 09:42:13;;;;;;;;;33.25;22.50;;;;;17.47;41.59;101437.88;5114431;28;8853;-62
2022/03/26 09:44:41;;;;;;;;;38.50;32.75;;;;;17.50;41.54;101432.22;5114907;28;8830;-61
2022/03/26 09:47:09;;;;;;;;;35.50;32.00;;;;;17.49;41.69;101434.06;5115201;28;8837;-62
2022/03/26 09:49:37;;;;;;;;;38.25;30.50;;;;;17.44;41.91;101428.22;5117761;28;8849;-62
2022/03/26 09:52:06;;;;;;;;;38.75;34.25;;;;;17.40;42.07;101425.91;5117867;28;8967;-62
2022/03/26 09:54:33;;;;;;;;;35.25;33.00;;;;;17.36;41.72;101432.50;5117712;28;9003;-62
2022/03/26 09:57:01;;;;;;;;;33.75;30.50;;;;;17.42;41.76;101429.31;5116085;28;8829;-63
2022/03/26 09:59:29;;;;;;;;;39.75;36.00;;;;;17.58;41.34;101425.22;5096328;28;8851;-63
2022/03/26 10:01:57;;;;;;;;;37.00;33.75;;;;;17.76;41.31;101420.94;5097342;28;8832;-63
2022/03/26 10:04:26;;;;;;;;;37.25;36.00;;;;;18.05;41.48;101419.28;5096041;28;9662;-62
2022/03/26 10:06:53;;;;;;;;;34.25;27.50;;;;;18.44;40.78;101413.09;5096827;28;9772;-62
2022/03/26 10:09:21;;;;;;;;;35.75;30.50;;;;;19.11;39.70;101410.59;5097656;28;8901;-63
2022/03/26 10:11:49;;;;;;;;;37.50;36.50;;;;;20.05;38.69;101408.84;5096846;28;9807;-63
2022/03/26 10:14:17;;;;;;;;;30.75;26.50;;;;;21.03;37.88;101407.13;5097302;28;8871;-61
2022/03/26 10:16:45;;;;;;;;;32.50;31.00;;;;;21.92;36.34;101398.81;5096775;28;8950;-62
2022/03/26 10:19:14;;;;;;;;;28.25;25.50;;;;;22.78;35.22;101397.75;5097595;28;8835;-62
2022/03/26 10:21:42;;;;;;;;;29.40;29.40;;;;;23.50;34.63;101406.09;5097223;28;8836;-62
2022/03/26 10:24:10;;;;;;;;;26.60;25.60;;;;;24.06;34.30;101393.31;5096828;28;8839;-62
2022/03/26 10:26:39;;;;;;;;;31.60;30.20;;;;;24.64;33.68;101393.03;5097477;28;9501;-62
2022/03/26 10:29:07;;;;;;;;;27.60;22.80;;;;;25.16;33.00;101389.47;5115324;28;8825;-64
2022/03/26 10:34:21;;;;;;;;;23.60;20.60;;;;;26.36;31.70;101386.56;5117120;28;8825;-62
2022/03/26 10:36:48;;;;;;;;;17.20;16.80;;;;;26.76;31.44;101383.38;5116827;28;8833;-65
2022/03/26 10:39:16;;;;;;;;;20.40;17.20;;;;;27.19;30.70;101384.31;5117770;28;8902;-62
2022/03/26 10:41:44;;;;;;;;;23.20;19.00;;;;;27.54;30.42;101378.78;5117533;28;8855;-63
2022/03/26 10:44:12;;;;;;;;;22.80;19.00;;;;;27.74;30.34;101374.34;5116758;28;9535;-62
2022/03/26 10:46:40;;;;;;;;;23.00;20.00;;;;;27.94;30.52;101375.38;5116677;28;8967;-63
2022/03/26 10:49:08;;;;;;;;;21.60;19.80;;;;;28.20;30.07;101375.56;5106061;28;8827;-63
2022/03/26 10:51:37;;;;;;;;;21.80;18.40;;;;;28.26;30.27;101380.25;5096425;28;8811;-63
2022/03/26 10:54:04;;;;;;;;;23.00;20.00;;;;;28.32;30.45;101373.97;5096020;28;8966;-63
2022/03/26 10:56:32;;;;;;;;;21.60;19.60;;;;;28.47;30.14;101369.22;5096067;28;8889;-62
2022/03/26 10:59:00;;;;;;;;;16.60;15.60;;;;;28.52;29.56;101368.63;5095044;28;8866;-62
2022/03/26 11:01:28;;;;;;;;;19.00;17.60;;;;;28.60;29.76;101365.69;5096878;28;8831;-62
2022/03/26 11:03:56;;;;;;;;;16.00;15.80;;;;;28.50;30.01;101360.59;5095793;28;8831;-63
2022/03/26 11:06:24;;;;;;;;;12.80;10.80;;;;;28.54;30.08;101361.03;5096050;28;8831;-63
2022/03/26 11:08:59;;;;;;;;;17.40;16.60;;;;;28.64;29.92;101362.34;5095737;28;8970;-63
2022/03/26 11:11:27;;;;;;;;;20.00;17.20;;;;;28.87;29.44;101357.38;5095337;28;8961;-62
2022/03/26 11:13:55;;;;;;;;;14.40;14.40;;;;;29.05;29.67;101357.66;5095420;28;8855;-62
2022/03/26 11:16:23;;;;;;;;;13.00;12.40;;;;;29.17;29.38;101358.75;5094764;28;8847;-61
2022/03/26 11:18:51;;;;;;;;;17.20;17.20;;;;;29.29;28.85;101359.00;5096897;28;8897;-63
2022/03/26 11:21:19;;;;;;;;;20.80;18.60;;;;;29.48;28.44;101361.75;5093964;28;8843;-62
2022/03/26 11:23:47;;;;;;;;;19.80;17.00;;;;;29.62;28.20;101358.00;5095130;28;8820;-62
2022/03/26 11:26:15;;;;;;;;;22.80;20.00;;;;;29.85;28.19;101352.94;5095271;28;8831;-63
2022/03/26 11:28:42;;;;;;;;;14.40;13.60;;;;;30.23;28.14;101345.72;5093589;28;8962;-63
2022/03/26 11:31:10;;;;;;;;;20.20;19.40;;;;;30.59;27.93;101346.84;5094405;28;8835;-62
2022/03/26 11:33:38;;;;;;;;;17.20;17.00;;;;;30.80;27.71;101343.84;5094803;28;8839;-63